PWSweather.com
Personal Weather Stations
Station Observations

AwhituWaiuku, CA 268400

Lat: -37.058, Lon: -174.6346

Elevation: 250

Station Type: Personal

http://www.weather-display.com/windy/gb/grahamsbeach.htm

High Low Average
Temperature 0.0°F-17.8°F 0.0°F-17.8°F 0.0°F-17.8°F
Dew Point 0.0°F-17.8°F 0.0°F-17.8°F 0.0°F-17.8°F
Winds Calm Calm Calm Calm Calm Calm
Wind Gusts -- -- --
Humidity 0% 0% 0%
Pressure 0.00 in0.00 in 0.00 in0.00 in -
Precipitation 0.00 in0.0 mm - -
Hour Temp Dew Point Humidity Winds Wind Gusts Pressure Precip Precip Rate Daily Precip Total
12:00 AM 60.8°F16.0°C 51.7°F10.9°C 72% 10.4 mph SW16.7 kmh SW 16.1 mph25.9 kmh 30.28 in1025.4 mb - 0.00 in0.0 mm 0.00 in0.0 mm
12:30 AM 60.8°F16.0°C 51.3°F10.7°C 71% 9.2 mph SW14.8 kmh SW 13.8 mph22.2 kmh 30.28 in1025.4 mb - 0.00 in0.0 mm 0.00 in0.0 mm
01:00 AM 61.4°F16.3°C 51.5°F10.8°C 70% 10.4 mph SW16.7 kmh SW 19.6 mph31.5 kmh 30.28 in1025.4 mb - 0.00 in0.0 mm 0.00 in0.0 mm
01:30 AM 61.8°F16.6°C 52.3°F11.3°C 71% 15.0 mph SW24.1 kmh SW 19.6 mph31.5 kmh 30.28 in1025.4 mb - 0.00 in0.0 mm 0.00 in0.0 mm
02:00 AM 61.8°F16.6°C 51.5°F10.8°C 69% 10.4 mph SSW16.7 kmh SSW 13.8 mph22.2 kmh 30.28 in1025.4 mb - 0.00 in0.0 mm 0.00 in0.0 mm
02:30 AM 61.9°F16.6°C 51.6°F10.9°C 69% 8.1 mph SW13.0 kmh SW 11.5 mph18.5 kmh 30.27 in1025.1 mb - 0.00 in0.0 mm 0.00 in0.0 mm
03:00 AM 62.1°F16.7°C 53.0°F11.7°C 72% 12.7 mph WSW20.4 kmh WSW 13.8 mph22.2 kmh 30.27 in1025.1 mb - 0.00 in0.0 mm 0.00 in0.0 mm
03:30 AM 62.1°F16.7°C 52.2°F11.2°C 70% 12.7 mph SW20.4 kmh SW 15.0 mph24.1 kmh 30.26 in1024.7 mb - 0.00 in0.0 mm 0.00 in0.0 mm
04:00 AM 61.9°F16.6°C 52.0°F11.1°C 70% 12.7 mph WSW20.4 kmh WSW 15.0 mph24.1 kmh 30.26 in1024.7 mb - 0.00 in0.0 mm 0.00 in0.0 mm
04:30 AM 62.0°F16.7°C 52.1°F11.2°C 70% 4.6 mph SW7.4 kmh SW 10.4 mph16.7 kmh 30.27 in1025.1 mb - 0.00 in0.0 mm 0.00 in0.0 mm
05:00 AM 62.4°F16.9°C 52.1°F11.2°C 69% 10.4 mph S16.7 kmh S 11.5 mph18.5 kmh 30.27 in1025.1 mb - 0.00 in0.0 mm 0.00 in0.0 mm
05:30 AM 62.1°F16.7°C 52.6°F11.4°C 71% 10.4 mph S16.7 kmh S 12.7 mph20.4 kmh 30.27 in1025.1 mb - 0.00 in0.0 mm 0.00 in0.0 mm
06:00 AM 61.9°F16.6°C 52.0°F11.1°C 70% 8.1 mph SSW13.0 kmh SSW 10.4 mph16.7 kmh 30.27 in1025.1 mb - 0.00 in0.0 mm 0.00 in0.0 mm
06:30 AM 62.0°F16.7°C 53.2°F11.8°C 73% 16.1 mph SSW25.9 kmh SSW 19.6 mph31.5 kmh 30.28 in1025.4 mb - 0.00 in0.0 mm 0.00 in0.0 mm
07:00 AM 61.6°F16.4°C 52.1°F11.2°C 71% 13.8 mph SW22.2 kmh SW 18.4 mph29.6 kmh 30.29 in1025.7 mb - 0.00 in0.0 mm 0.00 in0.0 mm
08:00 AM 61.6°F16.4°C 52.1°F11.2°C 71% 5.8 mph S9.3 kmh S 10.4 mph16.7 kmh 30.31 in1026.4 mb - 0.00 in0.0 mm 0.00 in0.0 mm
08:30 AM 61.8°F16.6°C 53.0°F11.7°C 73% Calm Calm -- 30.32 in1026.8 mb - 0.00 in0.0 mm 0.00 in0.0 mm
09:00 AM 62.1°F16.7°C 53.0°F11.7°C 72% 8.1 mph SSE13.0 kmh SSE 10.4 mph16.7 kmh 30.32 in1026.8 mb - 0.00 in0.0 mm 0.00 in0.0 mm
09:30 AM 62.7°F17.1°C 52.0°F11.1°C 68% 9.2 mph S14.8 kmh S 10.4 mph16.7 kmh 30.32 in1026.8 mb - 0.00 in0.0 mm 0.00 in0.0 mm
10:00 AM 63.4°F17.4°C 52.7°F11.5°C 68% 5.8 mph SSE9.3 kmh SSE 5.8 mph9.3 kmh 30.32 in1026.8 mb - 0.00 in0.0 mm 0.00 in0.0 mm
10:30 AM 64.8°F18.2°C 54.0°F12.2°C 68% 4.6 mph S7.4 kmh S 8.1 mph13.0 kmh 30.32 in1026.8 mb - 0.00 in0.0 mm 0.00 in0.0 mm
11:00 AM 65.4°F18.6°C 53.3°F11.8°C 65% Calm Calm 1.2 mph1.9 kmh 30.31 in1026.4 mb - 0.00 in0.0 mm 0.00 in0.0 mm
11:30 AM 67.2°F19.6°C 52.4°F11.3°C 59% 3.5 mph SSE5.6 kmh SSE 3.5 mph5.6 kmh 30.31 in1026.4 mb - 0.00 in0.0 mm 0.00 in0.0 mm
12:00 PM 64.7°F18.2°C 54.7°F12.6°C 70% 1.2 mph SE1.9 kmh SE 3.5 mph5.6 kmh 30.31 in1026.4 mb - 0.00 in0.0 mm 0.00 in0.0 mm
12:30 PM 64.8°F18.2°C 54.4°F12.4°C 69% Calm Calm -- 30.29 in1025.7 mb - 0.00 in0.0 mm 0.00 in0.0 mm
01:00 PM 67.0°F19.4°C 55.3°F12.9°C 66% Calm Calm -- 30.28 in1025.4 mb - 0.00 in0.0 mm 0.00 in0.0 mm
01:30 PM 67.0°F19.4°C 54.0°F12.2°C 63% Calm Calm -- 30.27 in1025.1 mb - 0.00 in0.0 mm 0.00 in0.0 mm
02:00 PM 66.4°F19.1°C 53.4°F11.9°C 63% 2.3 mph E3.7 kmh E 2.3 mph3.7 kmh 30.26 in1024.7 mb - 0.00 in0.0 mm 0.00 in0.0 mm
02:30 PM 67.9°F19.9°C 53.5°F11.9°C 60% Calm Calm 3.5 mph5.6 kmh 30.26 in1024.7 mb - 0.00 in0.0 mm 0.00 in0.0 mm
03:00 PM 69.1°F20.6°C 54.2°F12.3°C 59% 1.2 mph NNE1.9 kmh NNE 2.3 mph3.7 kmh 30.25 in1024.4 mb - 0.00 in0.0 mm 0.00 in0.0 mm
03:30 PM 68.5°F20.3°C 53.6°F12.0°C 59% 2.3 mph NE3.7 kmh NE 3.5 mph5.6 kmh 30.25 in1024.4 mb - 0.00 in0.0 mm 0.00 in0.0 mm
04:00 PM 66.8°F19.3°C 52.5°F11.4°C 60% 3.5 mph E5.6 kmh E 3.5 mph5.6 kmh 30.26 in1024.7 mb - 0.00 in0.0 mm 0.00 in0.0 mm
04:30 PM 67.9°F19.9°C 54.0°F12.2°C 61% 1.2 mph E1.9 kmh E 3.5 mph5.6 kmh 30.26 in1024.7 mb - 0.00 in0.0 mm 0.00 in0.0 mm
05:00 PM 65.5°F18.6°C 53.5°F11.9°C 65% Calm Calm -- 30.27 in1025.1 mb - 0.00 in0.0 mm 0.00 in0.0 mm
05:30 PM 64.1°F17.8°C 52.9°F11.6°C 67% Calm Calm 3.5 mph5.6 kmh 30.29 in1025.7 mb - 0.00 in0.0 mm 0.00 in0.0 mm
06:00 PM 63.0°F17.2°C 52.2°F11.2°C 68% 2.3 mph NE3.7 kmh NE 3.5 mph5.6 kmh 30.31 in1026.4 mb - 0.00 in0.0 mm 0.00 in0.0 mm
06:30 PM 61.8°F16.6°C 52.7°F11.5°C 72% Calm Calm -- 30.33 in1027.1 mb - 0.00 in0.0 mm 0.00 in0.0 mm
07:00 PM 60.6°F15.9°C 52.6°F11.4°C 75% Calm Calm -- 30.34 in1027.4 mb - 0.00 in0.0 mm 0.00 in0.0 mm
07:30 PM 60.3°F15.7°C 53.1°F11.7°C 77% Calm Calm -- 30.34 in1027.4 mb - 0.00 in0.0 mm 0.00 in0.0 mm
08:00 PM 59.5°F15.3°C 53.0°F11.7°C 79% Calm Calm -- 30.34 in1027.4 mb - 0.00 in0.0 mm 0.00 in0.0 mm
08:30 PM 58.5°F14.7°C 52.4°F11.3°C 80% Calm Calm -- 30.35 in1027.8 mb - 0.00 in0.0 mm 0.00 in0.0 mm
09:00 PM 58.5°F14.7°C 53.4°F11.9°C 83% Calm Calm -- 30.36 in1028.1 mb - 0.00 in0.0 mm 0.00 in0.0 mm
09:30 PM 58.6°F14.8°C 53.8°F12.1°C 84% Calm Calm -- 30.36 in1028.1 mb - 0.00 in0.0 mm 0.00 in0.0 mm
10:00 PM 58.0°F14.4°C 53.2°F11.8°C 84% Calm Calm -- 30.36 in1028.1 mb - 0.00 in0.0 mm 0.00 in0.0 mm
10:30 PM 56.3°F13.5°C 52.5°F11.4°C 87% Calm Calm -- 30.36 in1028.1 mb - 0.00 in0.0 mm 0.00 in0.0 mm
11:00 PM 56.6°F13.7°C 53.1°F11.7°C 88% Calm Calm -- 30.37 in1028.4 mb - 0.00 in0.0 mm 0.00 in0.0 mm
11:30 PM 55.9°F13.3°C 52.4°F11.3°C 88% Calm Calm -- 30.38 in1028.8 mb - 0.00 in0.0 mm 0.00 in0.0 mm